createdAt,value
2016-11-17T00:00:47.436Z,72.72
2016-11-17T00:01:57.106Z,72.91
2016-11-17T00:03:07.084Z,72.72
2016-11-17T00:04:17.382Z,72.72
2016-11-17T00:05:27.742Z,72.72
2016-11-17T00:06:38.039Z,72.72
2016-11-17T00:07:48.015Z,72.72
2016-11-17T00:09:00.880Z,72.63
2016-11-17T00:10:11.445Z,72.91
2016-11-17T00:11:21.119Z,72.91
2016-11-17T00:12:31.422Z,72.72
2016-11-17T00:13:41.732Z,73
2016-11-17T00:14:52.032Z,72.91
2016-11-17T00:16:02.316Z,73
2016-11-17T00:17:12.597Z,72.91
2016-11-17T00:18:22.894Z,72.72
2016-11-17T00:19:33.187Z,72.91
2016-11-17T00:20:43.169Z,72.91
2016-11-17T00:21:53.488Z,73.1
2016-11-17T00:23:03.461Z,72.63
2016-11-17T00:24:13.766Z,72.91
2016-11-17T00:25:23.759Z,72.63
2016-11-17T00:26:33.749Z,72.91
2016-11-17T00:27:44.055Z,72.72
2016-11-17T00:28:54.067Z,72.72
2016-11-17T00:30:03.742Z,72.72
2016-11-17T00:31:14.045Z,72.81
2016-11-17T00:32:24.016Z,72.72
2016-11-17T00:33:34.350Z,72.72
2016-11-17T00:34:44.320Z,72.81
2016-11-17T00:35:54.311Z,72.72
2016-11-17T00:37:04.588Z,72.72
2016-11-17T00:38:14.871Z,72.72
2016-11-17T00:39:24.572Z,72.72
2016-11-17T00:40:34.585Z,72.63
2016-11-17T00:41:44.944Z,72.72
2016-11-17T00:42:55.018Z,72.91
2016-11-17T00:44:05.309Z,72.72
2016-11-17T00:45:15.298Z,72.63
2016-11-17T00:46:25.297Z,73
2016-11-17T00:47:35.267Z,73
2016-11-17T00:48:45.229Z,72.81
2016-11-17T00:49:55.205Z,72.91
2016-11-17T00:51:05.482Z,72.91
2016-11-17T00:52:15.509Z,72.91
2016-11-17T00:53:25.785Z,73.1
2016-11-17T00:54:35.757Z,72.81
2016-11-17T00:55:46.035Z,72.91
2016-11-17T00:56:56.321Z,72.91
2016-11-17T00:58:06.639Z,72.91
2016-11-17T00:59:16.959Z,73.1
2016-11-17T01:00:27.227Z,73.1
2016-11-17T01:01:37.504Z,72.91
2016-11-17T01:02:47.466Z,72.72
2016-11-17T01:03:57.440Z,72.81
2016-11-17T01:05:07.734Z,72.91
2016-11-17T01:06:17.992Z,72.91
2016-11-17T01:07:27.993Z,72.91
2016-11-17T01:08:38.274Z,72.91
2016-11-17T01:09:48.241Z,73.1
2016-11-17T01:10:58.230Z,72.91
2016-11-17T01:12:08.208Z,73.1
2016-11-17T01:13:18.491Z,72.81
2016-11-17T01:14:28.767Z,73
2016-11-17T01:15:39.077Z,72.63
2016-11-17T01:16:49.359Z,73
2016-11-17T01:17:59.337Z,72.91
2016-11-17T01:19:09.611Z,72.91
2016-11-17T01:20:19.890Z,73
2016-11-17T01:21:29.871Z,72.91
2016-11-17T01:22:39.853Z,72.91
2016-11-17T01:23:50.129Z,72.72
2016-11-17T01:25:00.082Z,72.72
2016-11-17T01:26:09.746Z,72.91
2016-11-17T01:27:20.025Z,73.1
2016-11-17T01:28:30.034Z,72.91
2016-11-17T01:29:39.997Z,72.91
2016-11-17T01:30:50.271Z,72.91
2016-11-17T01:32:00.246Z,73.1
2016-11-17T01:33:10.575Z,73.1
2016-11-17T01:34:20.540Z,72.72
2016-11-17T01:35:30.238Z,72.91
2016-11-17T01:36:40.514Z,73.1
2016-11-17T01:37:50.504Z,72.91
2016-11-17T01:39:00.471Z,72.91
2016-11-17T01:40:10.739Z,72.91
2016-11-17T01:41:20.730Z,72.81
2016-11-17T01:42:31.007Z,72.63
2016-11-17T01:43:41.292Z,72.81
2016-11-17T01:44:51.620Z,72.91
2016-11-17T01:46:01.598Z,73
2016-11-17T01:47:11.578Z,73
2016-11-17T01:48:21.895Z,73.29
2016-11-17T01:49:32.186Z,73
2016-11-17T01:50:42.160Z,73.19
2016-11-17T01:51:52.136Z,73.19
2016-11-17T01:53:02.451Z,73
2016-11-17T01:54:12.774Z,72.91
2016-11-17T01:55:23.053Z,73
2016-11-17T01:56:33.041Z,73.19
2016-11-17T01:57:43.014Z,73
2016-11-17T01:58:53.319Z,73
2016-11-17T02:00:03.606Z,73
2016-11-17T02:01:13.898Z,73
2016-11-17T02:02:24.175Z,73.1
2016-11-17T02:03:34.452Z,72.91
2016-11-17T02:04:44.437Z,73.1
2016-11-17T02:05:54.415Z,73.1
2016-11-17T02:07:04.698Z,72.91
2016-11-17T02:08:14.422Z,73
2016-11-17T02:09:24.702Z,72.91
2016-11-17T02:10:35.011Z,72.91
2016-11-17T02:11:45.296Z,73.1
2016-11-17T02:12:55.582Z,72.91
2016-11-17T02:14:05.872Z,72.91
2016-11-17T02:15:15.232Z,72.72
2016-11-17T02:16:25.209Z,72.91
2016-11-17T02:17:34.869Z,73.1
2016-11-17T02:18:44.836Z,72.91
2016-11-17T02:19:55.108Z,72.91
2016-11-17T02:21:05.387Z,72.91
2016-11-17T02:22:15.350Z,72.91
2016-11-17T02:23:25.337Z,72.72
2016-11-17T02:24:34.999Z,72.91
2016-11-17T02:25:45.317Z,72.91
2016-11-17T02:26:54.981Z,72.72
2016-11-17T02:28:05.272Z,72.91
2016-11-17T02:29:15.248Z,72.72
2016-11-17T02:30:25.522Z,72.91
2016-11-17T02:31:35.193Z,73.1
2016-11-17T02:32:44.534Z,72.91
2016-11-17T02:33:54.197Z,73.29
2016-11-17T02:35:04.166Z,73.1
2016-11-17T02:36:13.825Z,73.1
2016-11-17T02:37:23.820Z,72.91
2016-11-17T02:38:34.097Z,72.91
2016-11-17T02:39:44.399Z,72.91
2016-11-17T02:40:54.374Z,72.81
2016-11-17T02:42:04.346Z,72.91
2016-11-17T02:43:14.630Z,72.91
2016-11-17T02:44:24.295Z,72.91
2016-11-17T02:45:33.956Z,72.44
2016-11-17T02:46:43.923Z,72.81
2016-11-17T02:47:54.223Z,72.53
2016-11-17T02:49:04.497Z,72.72
2016-11-17T02:50:14.163Z,73
2016-11-17T02:51:24.137Z,72.63
2016-11-17T02:52:34.135Z,72.91
2016-11-17T02:53:44.094Z,73.19
2016-11-17T02:54:54.359Z,73
2016-11-17T02:56:04.011Z,73.1
2016-11-17T02:57:14.287Z,73.1
2016-11-17T02:58:24.578Z,72.72
2016-11-17T02:59:34.889Z,72.81
2016-11-17T03:00:44.861Z,72.72
2016-11-17T03:32:40.875Z,69.54
2016-11-17T03:33:51.170Z,70.3
2016-11-17T03:35:00.821Z,71.44
2016-11-17T03:36:10.772Z,71.91
2016-11-17T03:37:21.046Z,73.24
2016-11-17T03:38:31.382Z,73.75
2016-11-17T03:39:41.356Z,74.32
2016-11-17T03:40:51.348Z,74.51
2016-11-17T03:42:01.326Z,74.51
2016-11-17T03:43:11.294Z,74.79
2016-11-17T03:44:21.260Z,74.41
2016-11-17T03:45:30.923Z,74.45
2016-11-17T03:46:41.203Z,74.45
2016-11-17T03:47:51.165Z,74.54
2016-11-17T03:49:01.151Z,74.45
2016-11-17T03:50:11.153Z,74.54
2016-11-17T03:51:21.438Z,73.82
2016-11-17T03:52:31.707Z,73.63
2016-11-17T03:53:41.398Z,73.72
2016-11-17T03:54:51.701Z,73.44
2016-11-17T03:56:01.723Z,73.63
2016-11-17T03:57:12.029Z,73.82
2016-11-17T03:58:21.681Z,73.35
2016-11-17T03:59:31.968Z,73.92
2016-11-17T04:00:41.930Z,73.35
2016-11-17T04:01:51.902Z,73.48
2016-11-17T04:03:02.197Z,73.38
2016-11-17T04:04:12.465Z,73.19
2016-11-17T04:05:22.446Z,73.38
2016-11-17T04:06:32.724Z,73.19
2016-11-17T04:07:42.705Z,72.72
2016-11-17T04:08:52.663Z,72.53
2016-11-17T04:10:02.624Z,72.72
2016-11-17T04:11:12.901Z,72.72
2016-11-17T04:12:22.869Z,72.72
2016-11-17T04:13:32.849Z,72.53
2016-11-17T04:14:43.155Z,72.63
2016-11-17T04:15:53.430Z,72.85
2016-11-17T04:17:03.420Z,72.85
2016-11-17T04:18:13.386Z,72.95
2016-11-17T04:19:23.047Z,72.63
2016-11-17T04:20:32.395Z,72.66
2016-11-17T04:21:42.675Z,72.81
2016-11-17T04:22:52.364Z,72.72
2016-11-17T04:24:02.631Z,72.72
2016-11-17T04:25:12.909Z,72.72
2016-11-17T04:26:22.885Z,72.91
2016-11-17T04:27:33.205Z,72.81
2016-11-17T04:28:43.487Z,72.81
2016-11-17T04:29:53.468Z,72.53
2016-11-17T04:31:03.461Z,72.63
2016-11-17T04:32:13.429Z,72.53
2016-11-17T04:33:38.040Z,72.81
2016-11-17T04:34:47.702Z,72.63
2016-11-17T04:35:57.968Z,72.91
2016-11-17T04:37:08.257Z,72.63
2016-11-17T04:38:18.276Z,73
2016-11-17T04:39:28.244Z,72.63
2016-11-17T04:40:38.209Z,72.53
2016-11-17T04:41:48.494Z,72.72
2016-11-17T04:42:58.784Z,73
2016-11-17T04:44:08.445Z,73.1
2016-11-17T04:45:18.407Z,72.75
2016-11-17T04:46:28.374Z,72.91
2016-11-17T04:47:38.650Z,73.23
2016-11-17T04:48:48.674Z,72.95
2016-11-17T04:49:58.949Z,72.95
2016-11-17T04:51:08.595Z,72.85
2016-11-17T04:52:18.588Z,73.04
2016-11-17T04:53:28.931Z,72.95
2016-11-17T04:54:39.202Z,72.95
2016-11-17T04:55:49.163Z,72.95
2016-11-17T04:56:59.140Z,72.47
2016-11-17T04:58:09.408Z,72.47
2016-11-17T04:59:19.709Z,72.95
2016-11-17T05:00:29.360Z,72.47
2016-11-17T05:01:39.637Z,72.75
2016-11-17T05:02:49.916Z,72.66
2016-11-17T05:03:59.582Z,72.56
2016-11-17T05:05:09.588Z,72.85
2016-11-17T05:06:19.871Z,72.85
2016-11-17T05:07:30.176Z,72.85
2016-11-17T05:08:40.462Z,72.95
2016-11-17T05:09:50.119Z,72.95
2016-11-17T05:11:00.397Z,72.95
2016-11-17T05:12:10.693Z,73.04
2016-11-17T05:13:20.686Z,72.85
2016-11-17T05:14:30.963Z,72.47
2016-11-17T05:15:40.638Z,72.66
2016-11-17T05:16:50.286Z,72.47
2016-11-17T05:18:00.267Z,72.38
2016-11-17T05:19:10.242Z,73.23
2016-11-17T05:20:20.527Z,72.19
2016-11-17T05:21:30.506Z,72.19
2016-11-17T05:22:40.478Z,72.95
2016-11-17T05:23:50.457Z,72.95
2016-11-17T05:25:00.791Z,73.23
2016-11-17T05:26:10.758Z,73.14
2016-11-17T05:27:20.446Z,72.75
2016-11-17T05:28:29.808Z,72.85
2016-11-17T05:29:39.494Z,73.23
2016-11-17T05:30:49.451Z,73.04
2016-11-17T05:31:59.728Z,72.66
2016-11-17T05:33:09.703Z,72.85
2016-11-17T05:34:19.359Z,72.66
2016-11-17T05:35:29.333Z,73.04
2016-11-17T05:36:39.624Z,72.95
2016-11-17T05:37:49.936Z,72.47
2016-11-17T05:38:59.908Z,72.95
2016-11-17T05:40:10.114Z,72.85
2016-11-17T05:41:20.401Z,72.85
2016-11-17T05:42:30.674Z,73.04
2016-11-17T05:43:40.960Z,73.04
2016-11-17T05:44:50.636Z,73.14
2016-11-17T05:46:00.610Z,73.04
2016-11-17T05:47:10.897Z,72.95
2016-11-17T05:48:20.582Z,72.85
2016-11-17T05:49:30.274Z,72.95
2016-11-17T05:50:40.246Z,72.95
2016-11-17T05:51:50.218Z,73.14
2016-11-17T05:53:00.209Z,73.04
2016-11-17T05:54:10.511Z,72.95
2016-11-17T05:55:20.787Z,73.33
2016-11-17T05:56:31.074Z,73.23
2016-11-17T05:57:40.741Z,72.85
2016-11-17T05:58:51.013Z,72.66
2016-11-17T06:00:01.301Z,72.47
2016-11-17T06:01:11.267Z,72.56
2016-11-17T06:02:21.542Z,72.95
2016-11-17T06:03:31.514Z,72.85
2016-11-17T06:04:40.873Z,72.66
2016-11-17T06:05:51.190Z,72.95
2016-11-17T06:07:01.481Z,73.04
2016-11-17T06:08:11.140Z,72.95
2016-11-17T06:09:21.108Z,73.23
2016-11-17T06:10:31.091Z,72.95
2016-11-17T06:11:41.054Z,73.14
2016-11-17T06:12:51.058Z,72.95
2016-11-17T06:14:01.330Z,73.23
2016-11-17T06:15:11.294Z,72.95
2016-11-17T06:16:20.955Z,73.04
2016-11-17T06:17:30.918Z,72.95
2016-11-17T06:18:41.208Z,72.95
2016-11-17T06:19:51.485Z,72.95
2016-11-17T06:21:01.463Z,73.04
2016-11-17T06:22:10.882Z,73.14
2016-11-17T06:23:20.896Z,72.56
2016-11-17T06:24:31.176Z,72.85
2016-11-17T06:25:41.153Z,72.95
2016-11-17T06:26:51.427Z,73.14
2016-11-17T06:28:01.081Z,73.04
2016-11-17T06:29:11.104Z,72.95
2016-11-17T06:30:20.809Z,72.47
2016-11-17T06:31:30.779Z,72.85
2016-11-17T06:32:40.759Z,72.95
2016-11-17T06:33:50.730Z,72.85
2016-11-17T06:35:01.011Z,72.75
2016-11-17T06:36:10.988Z,72.66
2016-11-17T06:37:21.269Z,72.66
2016-11-17T06:38:31.241Z,72.85
2016-11-17T06:39:41.519Z,72.56
2016-11-17T06:40:51.795Z,72.85
2016-11-17T06:42:02.079Z,72.47
2016-11-17T06:43:12.352Z,72.47
2016-11-17T06:44:22.626Z,72.66
2016-11-17T06:45:32.311Z,72.47
2016-11-17T06:46:42.299Z,72.66
2016-11-17T06:47:52.581Z,72.56
2016-11-17T06:49:02.547Z,72.66
2016-11-17T06:50:12.504Z,72
2016-11-17T06:51:22.803Z,73.14
2016-11-17T06:52:33.118Z,72.38
2016-11-17T06:53:42.813Z,72.47
2016-11-17T06:54:53.145Z,72.66
2016-11-17T06:56:03.117Z,72.41
2016-11-17T06:57:13.423Z,72.47
2016-11-17T06:58:23.395Z,72.56
2016-11-17T06:59:33.376Z,72.41
2016-11-17T07:00:43.664Z,72.79
2016-11-17T07:01:53.324Z,72.66
2016-11-17T07:03:03.591Z,72.41
2016-11-17T07:04:13.608Z,72.6
2016-11-17T07:05:23.610Z,72.6
2016-11-17T07:06:33.876Z,72.47
2016-11-17T07:07:44.154Z,72.51
2016-11-17T07:08:53.825Z,72.6
2016-11-17T07:10:04.141Z,72.51
2016-11-17T07:11:14.107Z,72.51
2016-11-17T07:12:24.395Z,72.6
2016-11-17T07:13:34.661Z,72.79
2016-11-17T07:14:44.963Z,72.6
2016-11-17T07:15:54.929Z,72.51
2016-11-17T07:17:05.221Z,72.41
2016-11-17T07:18:15.204Z,72.6
2016-11-17T07:19:25.477Z,72.6
2016-11-17T07:20:35.753Z,72.6
2016-11-17T07:21:45.732Z,72.6
2016-11-17T07:22:55.690Z,72.7
2016-11-17T07:24:05.667Z,72.41
2016-11-17T07:25:15.322Z,72.7
2016-11-17T07:26:25.614Z,72.6
2016-11-17T07:27:35.906Z,72.79
2016-11-17T07:28:45.872Z,72.7
2016-11-17T07:29:55.529Z,72.99
2016-11-17T07:31:05.516Z,72.99
2016-11-17T07:32:15.802Z,72.03
2016-11-17T07:33:26.085Z,72.03
2016-11-17T07:34:36.078Z,72.26
2016-11-17T07:35:46.380Z,72.35
2016-11-17T07:36:56.664Z,72.26
2016-11-17T07:38:06.631Z,72.32
2016-11-17T07:39:16.364Z,72.45
2016-11-17T07:40:26.341Z,72.41
2016-11-17T07:41:36.338Z,72.22
2016-11-17T07:42:46.313Z,72.22
2016-11-17T07:43:56.588Z,72.22
2016-11-17T07:45:06.605Z,72.99
2016-11-17T07:46:16.874Z,72.89
2016-11-17T07:47:26.894Z,72.79
2016-11-17T07:48:36.855Z,72.74
2016-11-17T07:49:47.122Z,72.26
2016-11-17T07:50:57.088Z,72.32
2016-11-17T07:52:06.811Z,72.35
2016-11-17T07:53:16.803Z,72.07
2016-11-17T07:54:27.079Z,72.26
2016-11-17T07:55:37.079Z,72.07
2016-11-17T07:56:47.069Z,72.92
2016-11-17T07:57:57.036Z,73.02
2016-11-17T07:59:07.331Z,72.92
2016-11-17T08:00:17.297Z,72.92
2016-11-17T08:01:27.580Z,72.74
2016-11-17T08:02:37.556Z,73.02
2016-11-17T08:03:47.843Z,72.92
2016-11-17T08:04:57.860Z,72.92
2016-11-17T08:06:07.215Z,72.92
2016-11-17T08:07:17.498Z,72.83
2016-11-17T08:08:27.486Z,72.83
2016-11-17T08:09:37.478Z,72.92
2016-11-17T08:10:47.788Z,72.83
2016-11-17T08:11:58.073Z,72.92
2016-11-17T08:13:07.752Z,72.92
2016-11-17T08:14:17.418Z,73.11
2016-11-17T08:15:27.386Z,72.16
2016-11-17T08:16:37.349Z,72.26
2016-11-17T08:17:47.313Z,72.26
2016-11-17T08:18:57.586Z,72.45
2016-11-17T08:20:07.583Z,72.35
2016-11-17T08:21:17.553Z,72.26
2016-11-17T08:22:27.847Z,72.26
2016-11-17T08:23:37.503Z,72.45
2016-11-17T08:24:47.469Z,72.26
2016-11-17T08:25:57.750Z,72.55
2016-11-17T08:27:07.417Z,71.97
2016-11-17T08:28:17.374Z,72.16
2016-11-17T08:29:27.345Z,71.97
2016-11-17T08:30:37.622Z,72.07
2016-11-17T08:31:47.591Z,72.16
2016-11-17T08:32:57.582Z,71.82
2016-11-17T08:34:07.561Z,72.01
2016-11-17T08:35:17.854Z,72.2
2016-11-17T08:36:28.130Z,71.53
2016-11-17T08:37:38.410Z,71.34
2016-11-17T08:38:48.721Z,72.01
2016-11-17T08:39:59.044Z,72.01
2016-11-17T08:41:09.323Z,71.82
2016-11-17T08:42:19.614Z,72.01
2016-11-17T08:43:29.895Z,72.01
2016-11-17T08:44:39.863Z,71.63
2016-11-17T08:45:50.192Z,72.2
2016-11-17T08:47:00.165Z,72.11
2016-11-17T08:48:10.447Z,71.91
2016-11-17T08:49:20.777Z,72.3
2016-11-17T08:50:30.443Z,72.49
2016-11-17T08:51:40.723Z,72.49
2016-11-17T08:52:50.723Z,72.11
2016-11-17T08:54:00.690Z,72.11
2016-11-17T08:55:10.985Z,72.01
2016-11-17T08:56:21.054Z,72.2
2016-11-17T08:57:31.333Z,72.67
2016-11-17T08:58:40.994Z,72.01
2016-11-17T08:59:50.966Z,72.49
2016-11-17T09:01:01.242Z,72.58
2016-11-17T09:02:11.217Z,72.58
2016-11-17T09:03:21.536Z,72.49
2016-11-17T09:04:31.777Z,72.39
2016-11-17T09:05:41.483Z,72.49
2016-11-17T09:06:51.192Z,72.58
2016-11-17T09:08:01.470Z,72.58
2016-11-17T09:09:10.821Z,72.49
2016-11-17T09:10:20.510Z,72.49
2016-11-17T09:11:30.791Z,72.67
2016-11-17T09:12:40.791Z,72.2
2016-11-17T09:13:50.774Z,72.77
2016-11-17T09:15:01.041Z,72.49
2016-11-17T09:16:11.317Z,72.49
2016-11-17T09:17:21.294Z,72.11
2016-11-17T09:18:31.565Z,72.01
2016-11-17T09:19:41.254Z,71.72
2016-11-17T09:20:51.228Z,71.53
2016-11-17T09:22:01.238Z,71.72
2016-11-17T09:23:11.523Z,71.53
2016-11-17T09:24:21.496Z,72.01
2016-11-17T09:25:31.781Z,71.82
2016-11-17T09:26:42.057Z,71.57
2016-11-17T09:27:52.033Z,71.57
2016-11-17T09:29:02.305Z,71.28
2016-11-17T09:30:12.628Z,71.57
2016-11-17T09:31:22.920Z,71.76
2016-11-17T09:32:32.892Z,71.09
2016-11-17T09:33:42.887Z,71
2016-11-17T09:34:53.175Z,70.9
2016-11-17T09:36:03.464Z,70.9
2016-11-17T09:37:13.943Z,71.19
2016-11-17T09:38:23.956Z,71.32
2016-11-17T09:39:33.947Z,71.22
2016-11-17T09:40:44.315Z,71.13
2016-11-17T09:41:53.987Z,71.38
2016-11-17T09:43:04.016Z,71.47
2016-11-17T09:44:14.317Z,71.57
2016-11-17T09:45:24.613Z,71.76
2016-11-17T09:46:34.911Z,71.95
2016-11-17T09:47:44.981Z,72.05
2016-11-17T09:48:55.315Z,71.67
2016-11-17T09:50:05.288Z,71.86
2016-11-17T09:51:15.026Z,72.24
2016-11-17T09:52:25.430Z,71.86
2016-11-17T09:53:35.771Z,71.95
2016-11-17T09:54:46.079Z,71.86
2016-11-17T09:55:56.408Z,71.86
2016-11-17T09:57:06.732Z,71.89
2016-11-17T09:58:17.093Z,71.98
2016-11-17T09:59:27.835Z,71.89
2016-11-17T10:00:38.157Z,71.67
2016-11-17T10:01:48.162Z,71.95
2016-11-17T10:02:58.177Z,71.51
2016-11-17T10:04:08.153Z,72.17
2016-11-17T10:05:18.477Z,72.17
2016-11-17T10:06:28.495Z,72.08
2016-11-17T10:07:38.806Z,72.17
2016-11-17T10:08:48.806Z,72.08
2016-11-17T10:09:58.786Z,72.08
2016-11-17T10:11:08.803Z,71.8
2016-11-17T10:12:18.817Z,72.27
2016-11-17T10:13:29.118Z,71.89
2016-11-17T10:14:39.092Z,72.37
2016-11-17T10:15:49.376Z,72.24
2016-11-17T10:16:59.048Z,72.24
2016-11-17T10:18:09.038Z,72.52
2016-11-17T10:19:19.040Z,72.17
2016-11-17T10:20:29.023Z,72.24
2016-11-17T10:21:39.344Z,72.05
2016-11-17T10:22:49.335Z,72.81
2016-11-17T10:23:59.635Z,72.71
2016-11-17T10:25:09.314Z,72.42
2016-11-17T10:26:19.627Z,72.42
2016-11-17T10:27:29.297Z,72.42
2016-11-17T10:28:39.418Z,72.33
2016-11-17T10:29:49.095Z,72.52
2016-11-17T10:30:59.069Z,72.24
2016-11-17T10:32:08.764Z,72.33
2016-11-17T10:33:18.772Z,72.14
2016-11-17T10:34:28.790Z,73.1
2016-11-17T10:35:38.766Z,72.9
2016-11-17T10:36:48.741Z,72.62
2016-11-17T10:37:59.021Z,72.39
2016-11-17T10:39:09.344Z,72.86
2016-11-17T10:40:19.326Z,73.25
2016-11-17T10:41:29.613Z,72.77
2016-11-17T10:42:39.620Z,72.67
2016-11-17T10:43:49.614Z,72.86
2016-11-17T10:44:59.911Z,72.86
2016-11-17T10:46:10.203Z,73.06
2016-11-17T10:47:20.578Z,72.96
2016-11-17T10:48:30.864Z,73.06
2016-11-17T10:49:40.579Z,73.15
2016-11-17T10:50:50.597Z,72.96
2016-11-17T10:52:00.290Z,72.2
2016-11-17T10:53:10.587Z,72.2
2016-11-17T10:54:20.278Z,72.49
2016-11-17T10:55:30.260Z,72.3
2016-11-17T10:56:40.245Z,72.39
2016-11-17T10:57:50.233Z,72.39
2016-11-17T10:58:59.926Z,72.49
2016-11-17T11:00:09.645Z,72.39
2016-11-17T11:01:19.927Z,72.49
2016-11-17T11:02:30.224Z,72.49
2016-11-17T11:03:40.572Z,72.39
2016-11-17T11:04:50.865Z,72.39
2016-11-17T11:06:01.168Z,72.39
2016-11-17T11:07:11.151Z,72.49
2016-11-17T11:08:21.468Z,72.49
2016-11-17T11:09:31.765Z,72.49
2016-11-17T11:10:41.747Z,72.39
2016-11-17T11:11:51.738Z,72.77
2016-11-17T11:13:01.710Z,72.77
2016-11-17T11:14:11.401Z,72.49
2016-11-17T11:15:21.681Z,72.33
2016-11-17T11:16:31.040Z,72.33
2016-11-17T11:17:41.012Z,72.24
2016-11-17T11:18:50.379Z,72.05
2016-11-17T11:20:00.053Z,72.14
2016-11-17T11:21:10.088Z,72.33
2016-11-17T11:22:20.110Z,72.14
2016-11-17T11:23:30.108Z,72.24
2016-11-17T11:24:40.401Z,71.95
2016-11-17T11:25:49.993Z,72.33
2016-11-17T11:26:59.968Z,72.24
2016-11-17T11:28:09.959Z,72.05
2016-11-17T11:29:19.629Z,72.05
2016-11-17T11:30:29.904Z,72.05
2016-11-17T11:31:40.200Z,72.24
2016-11-17T11:32:50.484Z,71.98
2016-11-17T11:34:00.474Z,72.17
2016-11-17T11:35:10.459Z,72.27
2016-11-17T11:36:20.428Z,72.08
2016-11-17T11:37:30.421Z,72.08
2016-11-17T11:38:40.141Z,72.65
2016-11-17T11:39:50.440Z,72.65
2016-11-17T11:41:00.723Z,72.65
2016-11-17T11:42:10.940Z,72.65
2016-11-17T11:43:20.302Z,72.27
2016-11-17T11:44:30.282Z,72.17
2016-11-17T11:45:40.574Z,72.27
2016-11-17T11:46:51.007Z,72.17
2016-11-17T11:48:01.285Z,71.98
2016-11-17T11:49:11.600Z,71.61
2016-11-17T11:50:21.892Z,71.73
2016-11-17T11:51:32.204Z,71.93
2016-11-17T11:52:42.490Z,72.21
2016-11-17T11:53:52.481Z,71.93
2016-11-17T11:55:02.885Z,71.83
2016-11-17T11:56:13.195Z,72.12
2016-11-17T11:57:22.862Z,72.12
2016-11-17T11:58:33.153Z,72.21
2016-11-17T11:59:43.142Z,72.88
2016-11-17T12:00:53.183Z,72.6
2016-11-17T12:02:03.194Z,72.31
2016-11-17T12:03:13.190Z,72.31
2016-11-17T12:04:23.473Z,72.41
2016-11-17T12:05:33.787Z,72.41
2016-11-17T12:06:43.747Z,72.41
2016-11-17T12:07:53.454Z,72.41
2016-11-17T12:09:03.460Z,72.31
2016-11-17T12:10:13.438Z,72.41
2016-11-17T12:11:23.419Z,72.46
2016-11-17T12:12:33.394Z,72.6
2016-11-17T12:13:43.370Z,72.37
2016-11-17T12:14:53.086Z,72.94
2016-11-17T12:16:03.100Z,73.13
2016-11-17T12:17:13.426Z,73.03
2016-11-17T12:18:23.424Z,72.94
2016-11-17T12:19:33.501Z,73.13
2016-11-17T12:20:43.823Z,73.13
2016-11-17T12:21:53.793Z,73.22
2016-11-17T12:23:04.100Z,72.85
2016-11-17T12:24:14.088Z,72.85
2016-11-17T12:25:24.095Z,72.94
2016-11-17T12:26:34.379Z,72.75
2016-11-17T12:27:44.358Z,72.56
2016-11-17T12:28:54.333Z,72.65
2016-11-17T12:30:04.331Z,72.65
2016-11-17T12:31:14.384Z,72.65
2016-11-17T12:32:24.069Z,72.75
2016-11-17T12:33:34.360Z,72.65
2016-11-17T12:34:44.355Z,72.46
2016-11-17T12:35:54.634Z,72.37
2016-11-17T12:37:04.357Z,72.75
2016-11-17T12:38:14.334Z,72.56
2016-11-17T12:39:24.012Z,72.65
2016-11-17T12:40:34.308Z,72.65
2016-11-17T12:41:43.984Z,72.85
2016-11-17T12:42:54.276Z,72.94
2016-11-17T12:44:04.037Z,72.94
2016-11-17T12:45:14.319Z,72.94
2016-11-17T12:46:23.997Z,72.65
2016-11-17T12:47:34.284Z,72.65
2016-11-17T12:48:44.594Z,72.85
2016-11-17T12:49:54.585Z,72.94
2016-11-17T12:51:04.566Z,72.94
2016-11-17T12:52:14.924Z,72.75
2016-11-17T12:53:25.222Z,72.85
2016-11-17T12:54:35.183Z,72.62
2016-11-17T12:55:45.181Z,72.62
2016-11-17T12:56:55.458Z,72.65
2016-11-17T12:58:05.772Z,73
2016-11-17T12:59:16.066Z,72.62
2016-11-17T13:00:26.407Z,72.33
2016-11-17T13:01:36.703Z,73.28
2016-11-17T13:02:46.993Z,72.42
2016-11-17T13:03:56.678Z,72.62
2016-11-17T13:05:06.979Z,72.62
2016-11-17T13:06:16.947Z,73
2016-11-17T13:07:26.648Z,72.9
2016-11-17T13:08:36.626Z,72.62
2016-11-17T13:09:46.919Z,72.9
2016-11-17T13:10:57.219Z,73.47
2016-11-17T13:12:06.938Z,73.1
2016-11-17T13:13:16.916Z,73.1
2016-11-17T13:14:26.917Z,73.28
2016-11-17T13:15:36.908Z,73.1
2016-11-17T13:16:47.205Z,73.1
2016-11-17T13:17:57.241Z,73.28
2016-11-17T13:19:06.910Z,73.1
2016-11-17T13:20:16.889Z,72.71
2016-11-17T13:21:26.879Z,73
2016-11-17T13:22:37.202Z,72.52
2016-11-17T13:23:47.516Z,72.33
2016-11-17T13:24:57.837Z,72.33
2016-11-17T13:26:08.142Z,72.33
2016-11-17T13:27:18.453Z,72.52
2016-11-17T13:28:28.436Z,72.33
2016-11-17T13:29:38.749Z,72.81
2016-11-17T13:30:48.741Z,72.42
2016-11-17T13:31:59.024Z,72.71
2016-11-17T13:33:09.309Z,72.81
2016-11-17T13:34:19.296Z,72.33
2016-11-17T13:35:29.598Z,72.71
2016-11-17T13:36:39.909Z,73.1
2016-11-17T13:37:49.879Z,73.38
2016-11-17T13:38:59.878Z,73.1
2016-11-17T13:40:09.869Z,73.19
2016-11-17T13:41:20.208Z,73.38
2016-11-17T13:42:30.207Z,73
2016-11-17T13:43:40.501Z,73.28
2016-11-17T13:44:50.809Z,73.19
2016-11-17T13:46:01.125Z,73.1
2016-11-17T13:47:11.112Z,73
2016-11-17T13:48:21.406Z,73.1
2016-11-17T13:49:31.399Z,73.1
2016-11-17T13:50:41.704Z,72.9
2016-11-17T13:51:52.008Z,73.19
2016-11-17T13:53:02.355Z,73.1
2016-11-17T13:54:12.666Z,73.38
2016-11-17T13:55:22.656Z,73.1
2016-11-17T13:56:32.656Z,73.19
2016-11-17T13:57:42.330Z,72.81
2016-11-17T13:58:52.312Z,72.9
2016-11-17T14:00:02.320Z,72.81
2016-11-17T14:01:12.324Z,72.81
2016-11-17T14:02:22.619Z,73
2016-11-17T14:03:32.322Z,72.9
2016-11-17T14:04:42.401Z,73.1
2016-11-17T14:05:52.756Z,72.9
2016-11-17T14:07:02.742Z,73.38
2016-11-17T14:08:13.048Z,73.47
2016-11-17T14:09:23.047Z,73.57
2016-11-17T14:10:33.052Z,73.25
2016-11-17T14:11:43.037Z,73.53
2016-11-17T14:12:53.042Z,73.76
2016-11-17T14:14:03.051Z,73.44
2016-11-17T14:15:13.358Z,73.72
2016-11-17T14:16:23.349Z,73.72
2016-11-17T14:17:33.657Z,73.72
2016-11-17T14:18:43.665Z,73.63
2016-11-17T14:19:53.664Z,73.63
2016-11-17T14:21:03.674Z,73.44
2016-11-17T14:22:13.401Z,73.53
2016-11-17T14:23:23.686Z,73.34
2016-11-17T14:24:33.715Z,73.25
2016-11-17T14:25:43.716Z,73.34
2016-11-17T14:26:53.388Z,73.72
2016-11-17T14:28:03.389Z,73.44
2016-11-17T14:29:13.394Z,73.44
2016-11-17T14:30:23.748Z,73.44
2016-11-17T14:31:33.716Z,73.53
2016-11-17T14:32:43.677Z,73.53
2016-11-17T14:33:53.663Z,73.34
2016-11-17T14:35:03.663Z,73.44
2016-11-17T14:36:13.654Z,73.34
2016-11-17T14:37:23.661Z,73.44
2016-11-17T14:38:33.973Z,73.06
2016-11-17T14:39:43.992Z,73.38
2016-11-17T14:40:53.988Z,73.44
2016-11-17T14:42:04.304Z,73.25
2016-11-17T14:43:14.586Z,73.53
2016-11-17T14:44:24.282Z,73.34
2016-11-17T14:45:34.587Z,73.44
2016-11-17T14:46:44.931Z,73.34
2016-11-17T14:47:54.937Z,73.34
2016-11-17T14:49:04.912Z,73.53
2016-11-17T14:50:14.896Z,73.34
2016-11-17T14:51:25.250Z,73.25
2016-11-17T14:52:34.944Z,73.53
2016-11-17T14:53:44.331Z,73.34
2016-11-17T14:54:54.644Z,73.34
2016-11-17T14:56:04.973Z,73.57
2016-11-17T14:57:15.011Z,73.44
2016-11-17T14:58:25.295Z,73.44
2016-11-17T14:59:35.645Z,73.44
2016-11-17T15:00:45.331Z,73.34
2016-11-17T15:01:55.323Z,73.44
2016-11-17T15:03:05.664Z,73.53
2016-11-17T15:04:15.362Z,73.44
2016-11-17T15:05:25.659Z,73.44
2016-11-17T15:06:35.975Z,73.53
2016-11-17T15:07:46.265Z,73.34
2016-11-17T15:08:56.248Z,73.53
2016-11-17T15:10:06.556Z,73.44
2016-11-17T15:11:16.237Z,73.91
2016-11-17T15:12:26.225Z,73.34
2016-11-17T15:13:36.534Z,73.53
2016-11-17T15:14:46.535Z,73.44
2016-11-17T15:15:56.818Z,73.15
2016-11-17T15:17:06.498Z,73.34
2016-11-17T15:18:16.490Z,74.1
2016-11-17T15:19:26.487Z,73.82
2016-11-17T15:20:36.466Z,73.63
2016-11-17T15:21:46.453Z,73.91
2016-11-17T15:22:56.433Z,73.44
2016-11-17T15:24:06.454Z,73.44
2016-11-17T15:25:16.459Z,73.91
2016-11-17T15:26:26.773Z,73.25
2016-11-17T15:27:37.082Z,73.91
2016-11-17T15:28:47.387Z,74.01
2016-11-17T15:29:57.372Z,73.44
2016-11-17T15:31:07.693Z,73.63
2016-11-17T15:32:18.008Z,73.44
2016-11-17T15:33:27.699Z,73.44
2016-11-17T15:34:37.693Z,73.44
2016-11-17T15:35:47.380Z,73.15
2016-11-17T15:36:57.353Z,73.34
2016-11-17T15:38:07.361Z,73.82
2016-11-17T15:39:17.679Z,73.91